sensor_id;sensor_type;location;lat;lon;timestamp;P1;durP1;ratioP1;P2;durP2;ratioP2
23300;SDS011;11819;51.394;12.340;2023-09-18T00:00:00;11.13;;;8.77;;
23300;SDS011;11819;51.394;12.340;2023-09-18T00:02:33;10.60;;;8.48;;
23300;SDS011;11819;51.394;12.340;2023-09-18T00:04:59;10.48;;;8.80;;
23300;SDS011;11819;51.394;12.340;2023-09-18T00:07:25;12.68;;;9.32;;
23300;SDS011;11819;51.394;12.340;2023-09-18T00:09:51;12.52;;;9.30;;
23300;SDS011;11819;51.394;12.340;2023-09-18T00:12:18;10.45;;;9.32;;
23300;SDS011;11819;51.394;12.340;2023-09-18T00:14:47;12.10;;;8.88;;
23300;SDS011;11819;51.394;12.340;2023-09-18T00:17:13;11.07;;;9.48;;
23300;SDS011;11819;51.394;12.340;2023-09-18T00:19:39;10.60;;;8.15;;
23300;SDS011;11819;51.394;12.340;2023-09-18T00:22:05;11.50;;;8.77;;
23300;SDS011;11819;51.394;12.340;2023-09-18T00:24:31;9.80;;;8.80;;
23300;SDS011;11819;51.394;12.340;2023-09-18T00:26:58;10.98;;;8.75;;
23300;SDS011;11819;51.394;12.340;2023-09-18T00:29:24;10.75;;;9.23;;
23300;SDS011;11819;51.394;12.340;2023-09-18T00:31:51;10.32;;;9.23;;
23300;SDS011;11819;51.394;12.340;2023-09-18T00:34:17;10.85;;;8.68;;
23300;SDS011;11819;51.394;12.340;2023-09-18T00:36:43;11.63;;;9.45;;
23300;SDS011;11819;51.394;12.340;2023-09-18T00:39:09;9.95;;;8.90;;
23300;SDS011;11819;51.394;12.340;2023-09-18T00:41:35;11.90;;;8.88;;
23300;SDS011;11819;51.394;12.340;2023-09-18T00:44:02;10.82;;;8.93;;
23300;SDS011;11819;51.394;12.340;2023-09-18T00:46:28;11.18;;;8.25;;
23300;SDS011;11819;51.394;12.340;2023-09-18T00:48:54;10.88;;;8.55;;
23300;SDS011;11819;51.394;12.340;2023-09-18T00:51:20;10.85;;;8.55;;
23300;SDS011;11819;51.394;12.340;2023-09-18T00:53:47;10.38;;;8.63;;
23300;SDS011;11819;51.394;12.340;2023-09-18T00:56:14;10.48;;;7.80;;
23300;SDS011;11819;51.394;12.340;2023-09-18T00:58:41;10.00;;;8.88;;
23300;SDS011;11819;51.394;12.340;2023-09-18T01:01:08;9.55;;;8.30;;
23300;SDS011;11819;51.394;12.340;2023-09-18T01:03:35;11.68;;;8.95;;
23300;SDS011;11819;51.394;12.340;2023-09-18T01:06:01;11.07;;;8.50;;
23300;SDS011;11819;51.394;12.340;2023-09-18T01:08:28;10.70;;;8.70;;
23300;SDS011;11819;51.394;12.340;2023-09-18T01:11:19;10.32;;;8.90;;
23300;SDS011;11819;51.394;12.340;2023-09-18T01:16:42;11.10;;;8.48;;
23300;SDS011;11819;51.394;12.340;2023-09-18T01:19:10;9.23;;;8.05;;
23300;SDS011;11819;51.394;12.340;2023-09-18T01:21:36;9.77;;;8.43;;
23300;SDS011;11819;51.394;12.340;2023-09-18T01:24:02;9.15;;;7.80;;
23300;SDS011;11819;51.394;12.340;2023-09-18T01:26:29;10.18;;;7.90;;
23300;SDS011;11819;51.394;12.340;2023-09-18T01:28:55;10.32;;;8.52;;
23300;SDS011;11819;51.394;12.340;2023-09-18T01:31:21;9.98;;;8.60;;
23300;SDS011;11819;51.394;12.340;2023-09-18T01:33:47;9.75;;;8.63;;
23300;SDS011;11819;51.394;12.340;2023-09-18T01:36:14;12.70;;;8.73;;
23300;SDS011;11819;51.394;12.340;2023-09-18T01:38:41;10.73;;;8.38;;
23300;SDS011;11819;51.394;12.340;2023-09-18T01:41:07;10.98;;;8.43;;
23300;SDS011;11819;51.394;12.340;2023-09-18T01:43:34;12.68;;;8.60;;
23300;SDS011;11819;51.394;12.340;2023-09-18T01:46:00;10.50;;;8.27;;
23300;SDS011;11819;51.394;12.340;2023-09-18T01:48:27;11.43;;;8.45;;
23300;SDS011;11819;51.394;12.340;2023-09-18T01:50:53;9.85;;;8.27;;
23300;SDS011;11819;51.394;12.340;2023-09-18T01:53:19;12.02;;;8.70;;
23300;SDS011;11819;51.394;12.340;2023-09-18T01:55:46;9.70;;;7.90;;
23300;SDS011;11819;51.394;12.340;2023-09-18T01:58:13;10.90;;;8.45;;
23300;SDS011;11819;51.394;12.340;2023-09-18T02:00:39;11.20;;;9.02;;
23300;SDS011;11819;51.394;12.340;2023-09-18T02:03:05;12.32;;;8.57;;
23300;SDS011;11819;51.394;12.340;2023-09-18T02:05:31;10.63;;;8.27;;
23300;SDS011;11819;51.394;12.340;2023-09-18T02:07:57;9.95;;;8.52;;
23300;SDS011;11819;51.394;12.340;2023-09-18T02:10:23;10.95;;;8.50;;
23300;SDS011;11819;51.394;12.340;2023-09-18T02:12:49;11.13;;;8.50;;
23300;SDS011;11819;51.394;12.340;2023-09-18T02:15:15;10.02;;;8.65;;
23300;SDS011;11819;51.394;12.340;2023-09-18T02:17:42;11.60;;;8.70;;
23300;SDS011;11819;51.394;12.340;2023-09-18T02:20:08;12.15;;;9.35;;
23300;SDS011;11819;51.394;12.340;2023-09-18T02:22:37;12.10;;;8.30;;
23300;SDS011;11819;51.394;12.340;2023-09-18T02:25:05;11.23;;;8.15;;
23300;SDS011;11819;51.394;12.340;2023-09-18T02:27:31;9.00;;;8.10;;
23300;SDS011;11819;51.394;12.340;2023-09-18T02:29:57;10.05;;;8.07;;
23300;SDS011;11819;51.394;12.340;2023-09-18T02:32:23;10.82;;;7.88;;
23300;SDS011;11819;51.394;12.340;2023-09-18T02:34:49;10.82;;;8.75;;
23300;SDS011;11819;51.394;12.340;2023-09-18T02:37:16;10.65;;;8.45;;
23300;SDS011;11819;51.394;12.340;2023-09-18T02:39:42;12.27;;;8.50;;
23300;SDS011;11819;51.394;12.340;2023-09-18T02:42:08;9.10;;;8.07;;
23300;SDS011;11819;51.394;12.340;2023-09-18T02:44:34;10.45;;;7.97;;
23300;SDS011;11819;51.394;12.340;2023-09-18T02:47:01;10.40;;;8.38;;
23300;SDS011;11819;51.394;12.340;2023-09-18T02:49:27;11.02;;;9.13;;
23300;SDS011;11819;51.394;12.340;2023-09-18T02:51:54;11.38;;;8.68;;
23300;SDS011;11819;51.394;12.340;2023-09-18T02:54:21;11.35;;;8.75;;
23300;SDS011;11819;51.394;12.340;2023-09-18T02:56:47;9.40;;;8.10;;
23300;SDS011;11819;51.394;12.340;2023-09-18T02:59:13;9.55;;;7.80;;
23300;SDS011;11819;51.394;12.340;2023-09-18T03:01:40;10.13;;;8.38;;
23300;SDS011;11819;51.394;12.340;2023-09-18T03:04:06;9.60;;;8.20;;
23300;SDS011;11819;51.394;12.340;2023-09-18T03:06:32;11.68;;;8.77;;
23300;SDS011;11819;51.394;12.340;2023-09-18T03:08:59;9.75;;;8.65;;
23300;SDS011;11819;51.394;12.340;2023-09-18T03:11:25;10.40;;;8.77;;
23300;SDS011;11819;51.394;12.340;2023-09-18T03:13:54;13.40;;;9.25;;
23300;SDS011;11819;51.394;12.340;2023-09-18T03:16:20;10.65;;;8.75;;
23300;SDS011;11819;51.394;12.340;2023-09-18T03:18:46;14.45;;;9.77;;
23300;SDS011;11819;51.394;12.340;2023-09-18T03:21:12;11.40;;;8.50;;
23300;SDS011;11819;51.394;12.340;2023-09-18T03:23:38;13.50;;;9.55;;
23300;SDS011;11819;51.394;12.340;2023-09-18T03:26:05;9.75;;;8.65;;
23300;SDS011;11819;51.394;12.340;2023-09-18T03:28:31;10.98;;;9.07;;
23300;SDS011;11819;51.394;12.340;2023-09-18T03:30:58;10.80;;;9.32;;
23300;SDS011;11819;51.394;12.340;2023-09-18T03:33:24;10.63;;;8.90;;
23300;SDS011;11819;51.394;12.340;2023-09-18T03:35:51;13.32;;;9.00;;
23300;SDS011;11819;51.394;12.340;2023-09-18T03:38:22;13.82;;;9.00;;
23300;SDS011;11819;51.394;12.340;2023-09-18T03:40:49;11.20;;;9.05;;
23300;SDS011;11819;51.394;12.340;2023-09-18T03:43:16;10.77;;;9.13;;
23300;SDS011;11819;51.394;12.340;2023-09-18T03:45:42;12.85;;;9.15;;
23300;SDS011;11819;51.394;12.340;2023-09-18T03:48:09;11.43;;;8.85;;
23300;SDS011;11819;51.394;12.340;2023-09-18T03:50:35;10.38;;;8.90;;
23300;SDS011;11819;51.394;12.340;2023-09-18T03:53:01;10.40;;;9.00;;
23300;SDS011;11819;51.394;12.340;2023-09-18T03:55:28;10.35;;;9.23;;
23300;SDS011;11819;51.394;12.340;2023-09-18T03:57:55;10.32;;;9.23;;
23300;SDS011;11819;51.394;12.340;2023-09-18T04:00:21;10.95;;;9.35;;
23300;SDS011;11819;51.394;12.340;2023-09-18T04:02:48;12.48;;;9.20;;
23300;SDS011;11819;51.394;12.340;2023-09-18T04:05:14;12.57;;;9.90;;
23300;SDS011;11819;51.394;12.340;2023-09-18T04:07:40;11.55;;;9.35;;
23300;SDS011;11819;51.394;12.340;2023-09-18T04:10:10;10.57;;;9.10;;
23300;SDS011;11819;51.394;12.340;2023-09-18T04:12:42;10.68;;;9.25;;
23300;SDS011;11819;51.394;12.340;2023-09-18T04:15:11;11.85;;;9.93;;
23300;SDS011;11819;51.394;12.340;2023-09-18T04:17:38;11.82;;;10.15;;
23300;SDS011;11819;51.394;12.340;2023-09-18T04:20:05;10.95;;;9.25;;
23300;SDS011;11819;51.394;12.340;2023-09-18T04:22:31;11.93;;;10.32;;
23300;SDS011;11819;51.394;12.340;2023-09-18T04:24:57;11.30;;;9.85;;
23300;SDS011;11819;51.394;12.340;2023-09-18T04:27:23;11.57;;;9.52;;
23300;SDS011;11819;51.394;12.340;2023-09-18T04:29:50;11.18;;;9.43;;
23300;SDS011;11819;51.394;12.340;2023-09-18T04:32:16;11.70;;;10.20;;
23300;SDS011;11819;51.394;12.340;2023-09-18T04:34:42;11.55;;;10.35;;
23300;SDS011;11819;51.394;12.340;2023-09-18T04:37:08;14.27;;;12.18;;
23300;SDS011;11819;51.394;12.340;2023-09-18T04:39:35;11.35;;;10.15;;
23300;SDS011;11819;51.394;12.340;2023-09-18T04:42:02;13.35;;;10.57;;
23300;SDS011;11819;51.394;12.340;2023-09-18T04:44:29;12.48;;;10.07;;
23300;SDS011;11819;51.394;12.340;2023-09-18T04:46:56;12.25;;;10.05;;
23300;SDS011;11819;51.394;12.340;2023-09-18T04:49:23;12.60;;;10.40;;
23300;SDS011;11819;51.394;12.340;2023-09-18T04:51:49;11.85;;;10.30;;
23300;SDS011;11819;51.394;12.340;2023-09-18T04:54:16;14.52;;;10.65;;
23300;SDS011;11819;51.394;12.340;2023-09-18T04:56:42;13.90;;;9.95;;
23300;SDS011;11819;51.394;12.340;2023-09-18T04:59:08;13.02;;;10.20;;
23300;SDS011;11819;51.394;12.340;2023-09-18T05:01:34;13.77;;;10.13;;
23300;SDS011;11819;51.394;12.340;2023-09-18T05:04:00;15.15;;;10.40;;
23300;SDS011;11819;51.394;12.340;2023-09-18T05:06:26;15.13;;;10.50;;
23300;SDS011;11819;51.394;12.340;2023-09-18T05:08:53;13.32;;;10.40;;
23300;SDS011;11819;51.394;12.340;2023-09-18T05:11:20;13.05;;;10.25;;
23300;SDS011;11819;51.394;12.340;2023-09-18T05:13:46;17.08;;;9.77;;
23300;SDS011;11819;51.394;12.340;2023-09-18T05:16:13;14.57;;;10.68;;
